createdAt,value
2023-05-12T00:00:21.446Z,0.90
2023-05-12T00:01:24.039Z,0.93
2023-05-12T00:02:26.957Z,1.10
2023-05-12T00:03:29.997Z,1.00
2023-05-12T00:04:32.488Z,1.13
2023-05-12T00:05:34.978Z,2.03
2023-05-12T00:06:37.387Z,0.90
2023-05-12T00:07:40.719Z,0.77
2023-05-12T00:08:43.086Z,0.60
2023-05-12T00:09:45.458Z,0.68
2023-05-12T00:10:48.078Z,2.35
2023-05-12T00:11:50.494Z,0.85
2023-05-12T00:12:55.380Z,1.08
2023-05-12T00:13:57.902Z,0.77
2023-05-12T00:15:01.254Z,0.80
2023-05-12T00:16:04.365Z,0.73
2023-05-12T00:17:07.760Z,0.75
2023-05-12T00:18:10.180Z,0.73
2023-05-12T00:19:12.620Z,0.75
2023-05-12T00:20:15.134Z,1.00
2023-05-12T00:21:17.560Z,1.15
2023-05-12T00:22:20.004Z,0.75
2023-05-12T00:23:22.948Z,0.73
2023-05-12T00:24:26.084Z,1.17
2023-05-12T00:25:28.810Z,1.20
2023-05-12T00:26:31.462Z,0.80
2023-05-12T00:27:33.880Z,1.10
2023-05-12T00:28:36.828Z,0.98
2023-05-12T00:29:39.292Z,2.78
2023-05-12T00:30:41.743Z,2.65
2023-05-12T00:31:44.175Z,0.95
2023-05-12T00:32:46.574Z,0.80
2023-05-12T00:33:49.795Z,0.55
2023-05-12T00:34:54.183Z,1.35
2023-05-12T00:35:56.704Z,1.05
2023-05-12T00:36:59.201Z,0.80
2023-05-12T00:38:01.571Z,1.33
2023-05-12T00:39:04.557Z,0.93
2023-05-12T00:40:07.718Z,0.73
2023-05-12T00:41:10.242Z,3.42
2023-05-12T00:42:12.808Z,1.10
2023-05-12T00:43:15.361Z,0.98
2023-05-12T00:44:18.442Z,0.98
2023-05-12T00:45:21.828Z,0.90
2023-05-12T00:46:24.907Z,0.90
2023-05-12T00:47:27.809Z,0.90
2023-05-12T00:48:30.441Z,4.13
2023-05-12T00:49:34.033Z,2.00
2023-05-12T00:50:36.931Z,1.17
2023-05-12T00:51:40.568Z,0.73
2023-05-12T00:52:43.152Z,1.42
2023-05-12T00:53:50.359Z,0.80
2023-05-12T00:54:53.733Z,1.15
2023-05-12T00:55:57.516Z,0.95
2023-05-12T00:57:01.781Z,0.80
2023-05-12T00:58:04.938Z,0.93
2023-05-12T00:59:07.746Z,2.00
2023-05-12T01:00:12.199Z,0.63
2023-05-12T01:01:16.895Z,1.00
2023-05-12T01:02:21.975Z,1.85
2023-05-12T01:03:26.031Z,2.78
2023-05-12T01:04:29.751Z,2.47
2023-05-12T01:05:54.207Z,48.85
2023-05-12T01:06:59.689Z,84.10
2023-05-12T01:08:03.514Z,73.53
2023-05-12T01:09:06.433Z,48.53
2023-05-12T01:10:22.150Z,29.67
2023-05-12T01:11:24.807Z,23.67
2023-05-12T01:12:28.409Z,16.20
2023-05-12T01:13:31.657Z,14.05
2023-05-12T01:14:34.246Z,9.35
2023-05-12T01:15:44.965Z,7.43
2023-05-12T01:16:53.239Z,6.65
2023-05-12T01:18:01.633Z,5.00
2023-05-12T01:19:14.993Z,4.72
2023-05-12T01:20:21.261Z,6.38
2023-05-12T01:21:24.210Z,3.17
2023-05-12T01:22:31.323Z,4.05
2023-05-12T01:23:39.969Z,4.25
2023-05-12T01:25:03.436Z,7.38
2023-05-12T01:26:11.334Z,12.48
2023-05-12T01:27:15.607Z,8.77
2023-05-12T01:28:19.432Z,16.17
2023-05-12T01:29:23.614Z,15.68
2023-05-12T01:30:27.936Z,8.93
2023-05-12T01:31:31.211Z,10.27
2023-05-12T01:32:35.823Z,5.43
2023-05-12T01:33:40.018Z,4.70
2023-05-12T01:34:43.226Z,4.38
2023-05-12T01:35:45.665Z,4.43
2023-05-12T01:36:48.036Z,3.47
2023-05-12T01:37:50.514Z,2.65
2023-05-12T01:38:52.972Z,2.95
2023-05-12T01:39:55.496Z,2.80
2023-05-12T01:40:58.139Z,4.15
2023-05-12T01:42:01.118Z,4.53
2023-05-12T01:43:03.568Z,2.22
2023-05-12T01:44:08.783Z,3.42
2023-05-12T01:45:13.926Z,4.68
2023-05-12T01:46:16.496Z,2.03
2023-05-12T01:47:21.399Z,3.67
2023-05-12T01:48:50.220Z,6.13
2023-05-12T01:49:54.378Z,2.75
2023-05-12T01:51:00.473Z,4.28
2023-05-12T01:52:03.150Z,14.70
2023-05-12T01:53:10.614Z,7.72
2023-05-12T01:54:13.725Z,5.50
2023-05-12T01:55:16.322Z,3.72
2023-05-12T01:56:29.291Z,3.58
2023-05-12T01:57:32.889Z,3.80
2023-05-12T01:58:36.447Z,3.33
2023-05-12T01:59:42.439Z,4.75
2023-05-12T02:00:44.907Z,2.33
2023-05-12T02:01:51.063Z,2.13
2023-05-12T02:02:59.879Z,2.60
2023-05-12T02:04:03.905Z,5.80
2023-05-12T02:05:07.236Z,2.53
2023-05-12T02:06:09.815Z,1.73
2023-05-12T02:07:12.566Z,2.45
2023-05-12T02:08:14.963Z,2.10
2023-05-12T02:09:17.447Z,2.55
2023-05-12T02:10:20.407Z,2.05
2023-05-12T02:11:23.081Z,5.45
2023-05-12T02:12:25.636Z,1.80
2023-05-12T02:13:28.458Z,2.58
2023-05-12T02:14:30.926Z,2.28
2023-05-12T02:15:33.732Z,1.75
2023-05-12T02:16:36.371Z,2.83
2023-05-12T02:17:39.143Z,1.80
2023-05-12T02:18:42.457Z,3.33
2023-05-12T02:19:44.856Z,4.57
2023-05-12T02:20:48.875Z,2.60
2023-05-12T02:21:51.353Z,2.30
2023-05-12T02:22:54.815Z,1.83
2023-05-12T02:23:57.356Z,1.80
2023-05-12T02:24:59.865Z,2.22
2023-05-12T02:26:02.942Z,1.95
2023-05-12T02:27:05.582Z,2.15
2023-05-12T02:28:10.925Z,2.00
2023-05-12T02:29:14.284Z,1.70
2023-05-12T02:30:16.777Z,1.77
2023-05-12T02:31:19.323Z,1.60
2023-05-12T02:32:21.942Z,1.98
2023-05-12T02:33:25.402Z,3.15
2023-05-12T02:34:27.724Z,1.73
2023-05-12T02:35:32.136Z,3.58
2023-05-12T02:36:34.720Z,1.90
2023-05-12T02:37:37.099Z,2.38
2023-05-12T02:38:41.167Z,4.18
2023-05-12T02:39:43.764Z,2.35
2023-05-12T02:40:47.439Z,21.25
2023-05-12T02:41:50.595Z,51.22
2023-05-12T02:42:53.087Z,42.00
2023-05-12T02:43:55.589Z,26.52
2023-05-12T02:44:57.987Z,19.92
2023-05-12T02:46:00.466Z,16.70
2023-05-12T02:47:03.163Z,17.27
2023-05-12T02:48:06.057Z,16.08
2023-05-12T02:49:08.808Z,9.93
2023-05-12T02:50:12.227Z,10.80
2023-05-12T02:51:14.762Z,9.85
2023-05-12T02:52:17.168Z,7.75
2023-05-12T02:53:19.815Z,9.48
2023-05-12T02:54:22.245Z,8.07
2023-05-12T02:55:24.677Z,9.45
2023-05-12T02:56:27.157Z,7.22
2023-05-12T02:57:33.933Z,11.82
2023-05-12T02:58:36.675Z,6.57
2023-05-12T02:59:39.053Z,7.57
2023-05-12T03:00:41.390Z,5.93
2023-05-12T03:01:44.707Z,7.53
2023-05-12T03:02:47.280Z,9.73
2023-05-12T03:03:49.925Z,4.65
2023-05-12T03:04:52.507Z,5.13
2023-05-12T03:05:55.435Z,5.45
2023-05-12T03:06:57.937Z,5.10
2023-05-12T03:08:00.240Z,4.18
2023-05-12T03:09:02.819Z,6.05
2023-05-12T03:10:06.163Z,4.88
2023-05-12T03:11:08.632Z,9.00
2023-05-12T03:12:11.203Z,7.80
2023-05-12T03:13:13.548Z,7.60
2023-05-12T03:14:15.957Z,20.30
2023-05-12T03:15:18.474Z,13.73
2023-05-12T03:16:21.051Z,11.80
2023-05-12T03:17:24.178Z,30.48
2023-05-12T03:18:27.755Z,12.00
2023-05-12T03:19:30.519Z,34.47
2023-05-12T03:20:33.138Z,29.13
2023-05-12T03:21:35.666Z,21.23
2023-05-12T03:22:39.181Z,10.80
2023-05-12T03:23:41.663Z,8.20
2023-05-12T03:24:44.206Z,7.35
2023-05-12T03:25:46.681Z,5.30
2023-05-12T03:26:49.238Z,6.20
2023-05-12T03:27:51.634Z,5.75
2023-05-12T03:28:54.109Z,4.78
2023-05-12T03:29:56.504Z,3.90
2023-05-12T03:30:59.305Z,5.15
2023-05-12T03:32:01.801Z,5.53
2023-05-12T03:33:04.712Z,4.70
2023-05-12T03:34:07.387Z,3.63
2023-05-12T03:35:10.022Z,3.88
2023-05-12T03:36:12.508Z,4.38
2023-05-12T03:37:16.187Z,3.00
2023-05-12T03:38:19.784Z,3.35
2023-05-12T03:39:24.787Z,3.30
2023-05-12T03:40:28.027Z,4.68
2023-05-12T03:41:30.466Z,2.72
2023-05-12T03:42:32.797Z,2.88
2023-05-12T03:43:35.841Z,4.40
2023-05-12T03:44:38.915Z,3.03
2023-05-12T03:45:41.387Z,4.10
2023-05-12T03:46:45.700Z,2.42
2023-05-12T03:47:49.750Z,3.15
2023-05-12T03:48:52.589Z,3.50
2023-05-12T03:49:55.043Z,2.22
2023-05-12T03:50:57.506Z,12.82
2023-05-12T03:51:59.981Z,27.08
2023-05-12T03:53:02.422Z,101.57
2023-05-12T03:54:04.882Z,63.85
2023-05-12T03:55:08.034Z,62.40
2023-05-12T03:56:11.272Z,51.55
2023-05-12T03:57:13.703Z,42.83
2023-05-12T03:58:16.780Z,39.33
2023-05-12T03:59:19.363Z,31.05
2023-05-12T04:00:22.369Z,27.23
2023-05-12T04:01:25.021Z,27.55
2023-05-12T04:02:27.604Z,24.48
2023-05-12T04:03:31.084Z,19.08
2023-05-12T04:04:33.597Z,20.17
2023-05-12T04:05:39.335Z,17.85
2023-05-12T04:06:41.793Z,16.00
2023-05-12T04:07:44.165Z,17.33
2023-05-12T04:08:46.526Z,16.25
2023-05-12T04:09:48.888Z,15.18
2023-05-12T04:10:52.187Z,16.02
2023-05-12T04:11:54.700Z,14.88
2023-05-12T04:12:58.099Z,17.33
2023-05-12T04:14:01.171Z,13.48
2023-05-12T04:15:03.833Z,13.77
2023-05-12T04:16:06.996Z,14.23
2023-05-12T04:17:09.497Z,14.65
2023-05-12T04:18:11.914Z,17.77
2023-05-12T04:19:15.066Z,14.35
2023-05-12T04:20:18.207Z,13.73
2023-05-12T04:21:21.014Z,18.35
2023-05-12T04:22:25.625Z,11.93
2023-05-12T04:23:29.278Z,21.05
2023-05-12T04:24:31.728Z,76.88
2023-05-12T04:25:34.315Z,44.08
2023-05-12T04:26:38.748Z,25.58
2023-05-12T04:27:41.164Z,48.72
2023-05-12T04:28:43.901Z,34.95
2023-05-12T04:29:46.417Z,16.35
2023-05-12T04:30:48.827Z,12.88
2023-05-12T04:31:51.167Z,13.35
2023-05-12T04:32:54.019Z,12.60
2023-05-12T04:33:57.223Z,12.35
2023-05-12T04:35:00.716Z,15.57
2023-05-12T04:36:03.990Z,12.00
2023-05-12T04:37:06.941Z,12.63
2023-05-12T04:38:10.339Z,14.95
2023-05-12T04:39:13.914Z,13.80
2023-05-12T04:40:16.343Z,16.88
2023-05-12T04:41:18.680Z,16.42
2023-05-12T04:42:21.037Z,18.25
2023-05-12T04:44:28.772Z,14.73
2023-05-12T04:45:31.256Z,16.27
2023-05-12T04:46:33.797Z,15.02
2023-05-12T04:47:36.455Z,15.82
2023-05-12T04:48:42.075Z,16.75
2023-05-12T04:49:44.560Z,15.55
2023-05-12T04:50:49.387Z,17.05
2023-05-12T04:51:51.816Z,17.63
2023-05-12T04:52:54.440Z,13.18
2023-05-12T04:53:56.861Z,19.10
2023-05-12T04:54:59.336Z,15.82
2023-05-12T04:56:03.325Z,16.35
2023-05-12T04:57:10.560Z,13.40
2023-05-12T04:58:13.939Z,16.92
2023-05-12T04:59:16.377Z,15.40
2023-05-12T05:00:20.948Z,15.10
2023-05-12T05:01:24.460Z,15.30
2023-05-12T05:02:28.002Z,13.73
2023-05-12T05:03:30.924Z,20.90
2023-05-12T05:04:33.554Z,15.05
2023-05-12T05:05:35.967Z,14.40
2023-05-12T05:06:39.265Z,16.13
2023-05-12T05:07:41.809Z,16.50
2023-05-12T05:08:44.208Z,65.35
2023-05-12T05:09:47.096Z,70.95
2023-05-12T05:10:49.514Z,46.05
2023-05-12T05:11:52.402Z,31.48
2023-05-12T05:12:55.760Z,22.52
2023-05-12T05:13:58.218Z,19.38
2023-05-12T05:15:00.803Z,21.50
2023-05-12T05:16:04.313Z,22.63
2023-05-12T05:17:07.951Z,23.60
2023-05-12T05:18:11.471Z,22.20
2023-05-12T05:19:21.454Z,17.88
2023-05-12T05:20:29.102Z,22.63
2023-05-12T05:21:32.820Z,20.33
2023-05-12T05:22:35.754Z,21.45
2023-05-12T05:23:38.196Z,18.98
2023-05-12T05:24:42.149Z,19.05
2023-05-12T05:25:44.576Z,19.23
2023-05-12T05:26:46.905Z,24.45
2023-05-12T05:27:50.300Z,19.80
2023-05-12T05:28:56.562Z,20.50
2023-05-12T05:30:01.915Z,19.92
2023-05-12T05:31:05.851Z,19.55
2023-05-12T05:32:08.436Z,18.70
2023-05-12T05:33:12.973Z,20.95
2023-05-12T05:34:15.845Z,21.92
2023-05-12T05:35:18.756Z,17.83
2023-05-12T05:36:26.402Z,34.28
2023-05-12T05:37:29.087Z,22.50
2023-05-12T05:38:32.661Z,45.67
2023-05-12T05:39:35.238Z,73.65
2023-05-12T05:40:49.275Z,52.45
2023-05-12T05:41:54.964Z,42.88
2023-05-12T05:42:57.269Z,38.13
2023-05-12T05:43:59.918Z,42.15
2023-05-12T05:45:04.827Z,35.63
2023-05-12T05:46:08.128Z,28.52
2023-05-12T05:47:11.029Z,23.98
2023-05-12T05:48:14.225Z,21.63
2023-05-12T05:49:16.792Z,24.92
2023-05-12T05:50:19.179Z,29.05
2023-05-12T05:51:21.541Z,22.98
2023-05-12T05:52:24.458Z,22.90
2023-05-12T05:53:27.828Z,20.73
2023-05-12T05:54:30.625Z,23.60
2023-05-12T05:55:33.965Z,21.50
2023-05-12T05:56:37.082Z,22.60
2023-05-12T05:57:39.500Z,24.10
2023-05-12T05:58:42.138Z,23.88
2023-05-12T05:59:45.051Z,21.30
2023-05-12T06:00:47.475Z,21.20
2023-05-12T06:01:50.035Z,24.08
2023-05-12T06:02:53.523Z,20.42
2023-05-12T06:03:57.107Z,22.00
2023-05-12T06:05:02.398Z,22.60
2023-05-12T06:06:05.070Z,23.13
2023-05-12T06:07:07.561Z,28.95
2023-05-12T06:08:13.345Z,21.70
2023-05-12T06:09:16.627Z,20.40
2023-05-12T06:10:19.383Z,22.45
2023-05-12T06:11:22.057Z,28.52
2023-05-12T06:12:25.195Z,27.70
2023-05-12T06:13:28.202Z,30.88
2023-05-12T06:14:30.743Z,45.13
2023-05-12T06:15:33.571Z,52.28
2023-05-12T06:16:36.168Z,33.58
2023-05-12T06:17:39.544Z,28.95
2023-05-12T06:18:42.044Z,27.60
2023-05-12T06:19:47.702Z,26.70
2023-05-12T06:20:50.109Z,27.05
2023-05-12T06:21:52.770Z,23.88
2023-05-12T06:22:55.196Z,23.15
2023-05-12T06:23:57.598Z,25.10
2023-05-12T06:25:00.444Z,29.45
2023-05-12T06:26:04.452Z,21.20
2023-05-12T06:27:07.280Z,22.92
2023-05-12T06:28:09.864Z,24.35
2023-05-12T06:29:12.309Z,21.17
2023-05-12T06:30:16.296Z,20.38
2023-05-12T06:31:19.015Z,24.70
2023-05-12T06:32:23.161Z,23.88
2023-05-12T06:33:25.658Z,25.27
2023-05-12T06:34:29.124Z,23.40
2023-05-12T06:35:32.052Z,21.80
2023-05-12T06:36:34.556Z,24.05
2023-05-12T06:37:37.032Z,22.55
2023-05-12T06:38:39.349Z,23.10
2023-05-12T06:39:41.800Z,20.02
2023-05-12T06:40:44.255Z,20.08
2023-05-12T06:41:46.604Z,18.00
2023-05-12T06:42:55.870Z,20.83
2023-05-12T06:44:03.000Z,18.20
2023-05-12T06:45:07.022Z,17.83
2023-05-12T06:46:09.674Z,17.35
2023-05-12T06:47:12.340Z,18.08
2023-05-12T06:48:14.815Z,13.63
2023-05-12T06:49:17.212Z,11.13
2023-05-12T06:50:19.659Z,11.40
2023-05-12T06:51:27.047Z,11.38
2023-05-12T06:52:30.021Z,9.45
2023-05-12T06:53:33.920Z,9.25
2023-05-12T06:54:36.413Z,9.27
2023-05-12T06:55:38.918Z,9.25
2023-05-12T06:56:44.242Z,30.00
2023-05-12T06:57:46.990Z,27.67
2023-05-12T06:58:50.056Z,18.95
2023-05-12T06:59:52.549Z,17.73
2023-05-12T07:00:54.959Z,12.30
2023-05-12T07:01:57.506Z,12.90
2023-05-12T07:03:00.210Z,16.55
2023-05-12T07:04:03.140Z,11.52
2023-05-12T07:05:06.570Z,9.85
2023-05-12T07:06:09.039Z,10.25
2023-05-12T07:07:11.476Z,8.05
2023-05-12T07:08:14.119Z,7.43
2023-05-12T07:09:18.869Z,10.27
2023-05-12T07:10:22.120Z,6.32
2023-05-12T07:11:24.460Z,7.57
2023-05-12T07:12:26.815Z,12.77
2023-05-12T07:13:29.404Z,7.15
2023-05-12T07:14:32.066Z,6.85
2023-05-12T07:15:34.949Z,6.70
2023-05-12T07:16:38.283Z,5.97
2023-05-12T07:17:40.926Z,6.63
2023-05-12T07:18:44.149Z,7.05
2023-05-12T07:19:47.047Z,4.35
2023-05-12T07:20:49.441Z,5.57
2023-05-12T07:21:51.809Z,5.25
2023-05-12T07:22:54.926Z,4.80
2023-05-12T07:23:57.519Z,5.43
2023-05-12T07:25:00.210Z,6.47
2023-05-12T07:26:04.688Z,4.75
2023-05-12T07:27:08.345Z,4.65
2023-05-12T07:28:11.435Z,5.00
2023-05-12T07:29:14.179Z,6.00
2023-05-12T07:30:17.167Z,5.25
2023-05-12T07:31:20.096Z,4.55
2023-05-12T07:32:22.622Z,4.72
2023-05-12T07:33:25.562Z,3.28
2023-05-12T07:34:29.014Z,4.40
2023-05-12T07:35:31.596Z,5.20
2023-05-12T07:36:34.259Z,4.75
2023-05-12T07:37:36.664Z,6.10
2023-05-12T07:38:39.497Z,3.70
2023-05-12T07:39:41.905Z,4.40
2023-05-12T07:40:45.193Z,4.90
2023-05-12T07:41:47.903Z,3.80
2023-05-12T07:42:50.548Z,4.18
2023-05-12T07:43:53.375Z,7.30
2023-05-12T07:44:56.175Z,3.85
2023-05-12T07:46:00.963Z,4.30
2023-05-12T07:47:03.553Z,3.95
2023-05-12T07:48:06.483Z,2.95
2023-05-12T07:49:08.959Z,5.20
2023-05-12T07:50:11.619Z,3.03
2023-05-12T07:51:14.106Z,3.95
2023-05-12T07:52:16.447Z,4.13
2023-05-12T07:53:18.783Z,3.53
2023-05-12T07:54:21.227Z,3.72
2023-05-12T07:55:23.707Z,4.25
2023-05-12T07:56:26.097Z,4.70
2023-05-12T07:57:28.496Z,4.97
2023-05-12T07:58:30.962Z,3.17
2023-05-12T07:59:33.347Z,3.35
2023-05-12T08:00:35.995Z,5.78
2023-05-12T08:01:38.417Z,6.45
2023-05-12T08:02:41.924Z,9.73
2023-05-12T08:03:45.242Z,8.20
2023-05-12T08:04:47.984Z,14.23
2023-05-12T08:05:50.405Z,21.77
2023-05-12T08:06:52.953Z,34.08
2023-05-12T08:07:55.435Z,28.88
2023-05-12T08:08:58.374Z,38.70
2023-05-12T08:10:00.909Z,49.65
2023-05-12T08:11:03.401Z,48.92
2023-05-12T08:12:06.083Z,26.10
2023-05-12T08:13:08.562Z,46.03
2023-05-12T08:14:11.931Z,39.47
2023-05-12T08:15:14.704Z,34.53
2023-05-12T08:16:17.562Z,34.10
2023-05-12T08:17:22.478Z,48.28
2023-05-12T08:18:25.978Z,30.92
2023-05-12T08:19:28.468Z,31.17
2023-05-12T08:20:31.631Z,50.95
2023-05-12T08:21:34.193Z,63.47
2023-05-12T08:22:36.804Z,60.28
2023-05-12T08:23:39.280Z,37.25
2023-05-12T08:24:41.635Z,40.45
2023-05-12T08:25:44.518Z,47.90
2023-05-12T08:26:46.880Z,33.80
2023-05-12T08:27:49.256Z,34.75
2023-05-12T08:28:51.584Z,24.15
2023-05-12T08:29:54.031Z,27.20
2023-05-12T08:30:57.127Z,27.48
2023-05-12T08:31:59.689Z,26.80
2023-05-12T08:33:04.668Z,30.40
2023-05-12T08:34:10.847Z,35.13
2023-05-12T08:35:13.740Z,24.58
2023-05-12T08:36:17.063Z,42.50
2023-05-12T08:37:19.774Z,36.33
2023-05-12T08:38:22.508Z,44.30
2023-05-12T08:39:28.605Z,52.10
2023-05-12T08:40:34.164Z,43.97
2023-05-12T08:41:41.754Z,44.15
2023-05-12T08:42:49.349Z,48.05
2023-05-12T08:43:52.951Z,50.88
2023-05-12T08:44:55.975Z,44.40
2023-05-12T08:45:59.122Z,59.97
2023-05-12T08:47:04.007Z,47.70
2023-05-12T08:48:11.924Z,46.28
2023-05-12T08:49:20.692Z,62.92
2023-05-12T08:50:23.438Z,51.35
2023-05-12T08:51:29.149Z,62.83
2023-05-12T08:52:35.905Z,66.03
2023-05-12T08:53:40.783Z,59.22
2023-05-12T08:54:54.862Z,46.80
2023-05-12T08:57:09.355Z,50.00
2023-05-12T08:57:28.709Z,51.28
2023-05-12T08:58:40.910Z,44.90
2023-05-12T08:59:45.055Z,46.08
2023-05-12T09:00:47.969Z,43.67
2023-05-12T09:01:53.178Z,46.55
2023-05-12T09:02:57.414Z,45.80
2023-05-12T09:04:00.067Z,52.20
2023-05-12T09:05:02.527Z,40.80
2023-05-12T09:06:06.698Z,49.83
2023-05-12T09:07:10.185Z,58.72
2023-05-12T09:08:13.520Z,41.53
2023-05-12T09:09:17.471Z,51.58
2023-05-12T09:10:34.377Z,49.60
2023-05-12T09:11:37.784Z,55.97
2023-05-12T09:12:40.662Z,56.78
2023-05-12T09:13:56.942Z,55.72
2023-05-12T09:15:05.231Z,47.03
2023-05-12T09:16:12.720Z,70.20
2023-05-12T09:17:15.980Z,61.85
2023-05-12T09:18:18.433Z,59.33
2023-05-12T09:19:21.503Z,64.90
2023-05-12T09:20:31.407Z,65.50
2023-05-12T09:21:34.675Z,58.35
2023-05-12T09:22:39.327Z,50.95
2023-05-12T09:24:18.450Z,51.00
2023-05-12T09:25:22.047Z,50.58
2023-05-12T09:26:26.434Z,39.92
2023-05-12T09:27:29.901Z,42.80
2023-05-12T09:28:37.203Z,30.00
2023-05-12T09:29:58.931Z,29.90
2023-05-12T09:31:03.728Z,22.75
2023-05-12T09:32:06.371Z,28.05
2023-05-12T09:33:13.494Z,22.92
2023-05-12T09:34:16.180Z,25.38
2023-05-12T09:35:18.942Z,24.67
2023-05-12T09:36:23.326Z,17.85
2023-05-12T09:37:32.337Z,19.63
2023-05-12T09:38:34.725Z,22.45
2023-05-12T09:39:37.343Z,18.02
2023-05-12T09:40:40.377Z,16.75
2023-05-12T09:41:43.537Z,17.15
2023-05-12T09:42:46.875Z,43.97
2023-05-12T09:43:53.334Z,43.80
2023-05-12T09:45:14.688Z,38.00
2023-05-12T09:46:17.013Z,30.45
2023-05-12T09:47:19.919Z,25.80
2023-05-12T09:48:22.244Z,19.95
2023-05-12T09:49:26.836Z,20.15
2023-05-12T09:50:40.922Z,18.30
2023-05-12T09:51:56.746Z,14.02
2023-05-12T09:53:00.133Z,15.15
2023-05-12T09:54:05.750Z,26.67
2023-05-12T09:55:12.509Z,26.42
2023-05-12T09:56:16.909Z,15.48
2023-05-12T09:57:22.859Z,18.88
2023-05-12T09:58:28.072Z,15.93
2023-05-12T09:59:36.091Z,15.02
2023-05-12T10:00:59.097Z,11.93
2023-05-12T10:02:06.787Z,13.45
2023-05-12T10:03:17.000Z,21.77
2023-05-12T10:04:20.797Z,11.93
2023-05-12T10:05:24.262Z,10.85
2023-05-12T10:06:37.815Z,14.13
2023-05-12T10:07:42.426Z,12.95
2023-05-12T10:09:00.101Z,16.48
2023-05-12T10:10:05.512Z,15.25
2023-05-12T10:11:09.461Z,10.20
2023-05-12T10:12:13.398Z,12.63
2023-05-12T10:13:16.924Z,11.40
2023-05-12T10:14:19.880Z,21.02
2023-05-12T10:15:23.762Z,28.10
2023-05-12T10:16:28.525Z,33.17
2023-05-12T10:17:32.177Z,31.83
2023-05-12T10:18:35.126Z,27.20
2023-05-12T10:19:42.455Z,22.13
2023-05-12T10:20:46.205Z,15.52
2023-05-12T10:21:49.559Z,20.90
2023-05-12T10:22:54.322Z,18.98
2023-05-12T10:23:57.866Z,16.85
2023-05-12T10:25:04.861Z,18.80
2023-05-12T10:26:09.664Z,13.73
2023-05-12T10:27:15.798Z,13.20
2023-05-12T10:28:20.050Z,14.68
2023-05-12T10:29:29.545Z,19.63
2023-05-12T10:30:33.896Z,10.70
2023-05-12T10:31:37.693Z,12.45
2023-05-12T10:32:41.163Z,11.30
2023-05-12T10:33:43.552Z,11.57
2023-05-12T10:34:46.425Z,16.65
2023-05-12T10:35:49.750Z,12.95
2023-05-12T10:36:54.005Z,12.60
2023-05-12T10:37:56.308Z,15.00
2023-05-12T10:39:06.304Z,14.10
2023-05-12T10:40:11.436Z,10.88
2023-05-12T10:41:13.910Z,13.52
2023-05-12T10:42:17.939Z,10.68
2023-05-12T10:43:24.795Z,10.13
2023-05-12T10:44:29.303Z,10.75
2023-05-12T10:45:37.095Z,9.68
2023-05-12T10:46:39.497Z,7.43
2023-05-12T10:47:42.995Z,12.40
2023-05-12T10:49:08.572Z,12.23
2023-05-12T10:50:14.622Z,11.93
2023-05-12T10:51:23.794Z,13.63
2023-05-12T10:52:26.763Z,10.98
2023-05-12T10:53:47.835Z,8.23
2023-05-12T10:55:03.247Z,10.65
2023-05-12T10:56:07.774Z,9.43
2023-05-12T10:57:20.894Z,8.25
2023-05-12T10:58:24.079Z,11.57
2023-05-12T10:59:28.914Z,8.57
2023-05-12T11:00:43.067Z,9.20
2023-05-12T11:02:06.961Z,10.68
2023-05-12T11:03:17.535Z,9.43
2023-05-12T11:04:22.452Z,5.93
2023-05-12T11:05:35.055Z,7.97
2023-05-12T11:06:39.179Z,9.75
2023-05-12T11:07:50.515Z,10.88
2023-05-12T11:10:01.617Z,8.10
2023-05-12T11:11:06.677Z,5.40
2023-05-12T11:12:10.289Z,7.75
2023-05-12T11:13:12.925Z,10.05
2023-05-12T11:14:16.053Z,5.28
2023-05-12T11:15:18.695Z,5.03
2023-05-12T11:16:21.352Z,5.25
2023-05-12T11:17:24.028Z,11.35
2023-05-12T11:18:26.670Z,5.82
2023-05-12T11:19:30.650Z,5.55
2023-05-12T11:20:33.428Z,8.38
2023-05-12T11:21:37.473Z,7.45
2023-05-12T11:22:41.402Z,11.77
2023-05-12T11:23:43.830Z,5.65
2023-05-12T11:24:47.296Z,11.07
2023-05-12T11:25:49.871Z,5.18
2023-05-12T11:26:52.402Z,12.07
2023-05-12T11:27:54.950Z,6.05
2023-05-12T11:28:58.503Z,5.72
2023-05-12T11:30:03.295Z,6.80
2023-05-12T11:31:08.412Z,7.18
2023-05-12T11:32:12.809Z,4.45
2023-05-12T11:33:22.998Z,4.38
2023-05-12T11:34:27.183Z,3.42
2023-05-12T11:35:33.475Z,36.97
2023-05-12T11:36:42.263Z,35.03
2023-05-12T11:37:46.056Z,21.95
2023-05-12T11:38:50.450Z,19.95
2023-05-12T11:39:53.245Z,18.30
2023-05-12T11:40:56.754Z,10.80
2023-05-12T11:42:12.850Z,15.10
2023-05-12T11:43:20.723Z,7.60
2023-05-12T11:44:25.936Z,6.10
2023-05-12T11:45:30.371Z,8.43
2023-05-12T11:46:32.797Z,5.93
2023-05-12T11:47:35.681Z,6.18
2023-05-12T11:48:38.618Z,6.75
2023-05-12T11:49:59.278Z,8.52
2023-05-12T11:51:02.675Z,5.88
2023-05-12T11:52:05.252Z,5.03
2023-05-12T11:53:14.654Z,8.50
2023-05-12T11:54:17.245Z,7.70
2023-05-12T11:55:23.337Z,8.15
2023-05-12T11:56:26.902Z,7.15
2023-05-12T11:57:33.349Z,5.85
2023-05-12T11:58:36.723Z,6.60
2023-05-12T11:59:39.084Z,4.60
2023-05-12T12:00:42.084Z,5.93
2023-05-12T12:01:46.582Z,5.65
2023-05-12T12:02:49.227Z,6.00
2023-05-12T12:03:54.625Z,7.60
2023-05-12T12:04:58.074Z,5.38
2023-05-12T12:06:03.614Z,5.10
2023-05-12T12:07:08.332Z,6.22
2023-05-12T12:08:15.711Z,8.18
2023-05-12T12:09:18.288Z,6.88
2023-05-12T12:10:21.888Z,7.78
2023-05-12T12:11:30.503Z,5.20
2023-05-12T12:12:32.958Z,9.93
2023-05-12T12:13:35.521Z,10.27
2023-05-12T12:14:38.429Z,22.02
2023-05-12T12:15:41.167Z,24.52
2023-05-12T12:16:43.564Z,13.63
2023-05-12T12:17:46.040Z,13.60
2023-05-12T12:18:48.664Z,9.77
2023-05-12T12:19:51.083Z,6.75
2023-05-12T12:20:53.553Z,6.65
2023-05-12T12:21:57.006Z,5.03
2023-05-12T12:22:59.798Z,8.43
2023-05-12T12:24:02.469Z,5.72
2023-05-12T12:25:06.432Z,8.02
2023-05-12T12:26:08.978Z,4.18
2023-05-12T12:27:11.508Z,4.30
2023-05-12T12:28:13.992Z,6.63
2023-05-12T12:29:17.282Z,9.52
2023-05-12T12:30:20.053Z,4.20
2023-05-12T12:31:22.822Z,5.93
2023-05-12T12:32:25.281Z,4.82
2023-05-12T12:33:27.880Z,3.17
2023-05-12T12:34:30.572Z,4.65
2023-05-12T12:35:33.040Z,7.20
2023-05-12T12:36:35.734Z,3.95
2023-05-12T12:37:39.774Z,3.72
2023-05-12T12:38:43.572Z,4.72
2023-05-12T12:39:47.811Z,4.63
2023-05-12T12:40:50.356Z,4.35
2023-05-12T12:41:54.206Z,6.13
2023-05-12T12:42:56.936Z,5.07
2023-05-12T12:43:59.982Z,5.72
2023-05-12T12:45:04.249Z,4.88
2023-05-12T12:46:07.514Z,4.20
2023-05-12T12:47:10.425Z,3.38
2023-05-12T12:48:13.622Z,3.72
2023-05-12T12:49:16.190Z,3.85
2023-05-12T12:50:20.757Z,4.63
2023-05-12T12:51:24.332Z,4.32
2023-05-12T12:52:27.968Z,6.20
2023-05-12T12:53:30.856Z,4.22
2023-05-12T12:54:33.725Z,4.53
2023-05-12T12:55:36.646Z,7.07
2023-05-12T12:56:40.215Z,7.03
2023-05-12T12:57:45.320Z,6.22
2023-05-12T12:58:48.149Z,4.22
2023-05-12T12:59:50.765Z,3.33
2023-05-12T13:00:53.249Z,5.63
2023-05-12T13:02:00.360Z,3.60
2023-05-12T13:03:03.572Z,4.53
2023-05-12T13:04:06.193Z,4.22
2023-05-12T13:05:10.109Z,8.35
2023-05-12T13:06:14.984Z,7.05
2023-05-12T13:07:17.478Z,4.05
2023-05-12T13:08:21.178Z,4.07
2023-05-12T13:09:24.502Z,3.47
2023-05-12T13:10:27.115Z,1.92
2023-05-12T13:11:29.903Z,2.38
2023-05-12T13:12:33.886Z,4.63
2023-05-12T13:13:37.587Z,2.40
2023-05-12T13:14:40.352Z,3.50
2023-05-12T13:15:43.177Z,6.80
2023-05-12T13:16:46.078Z,2.20
2023-05-12T13:17:48.636Z,6.47
2023-05-12T13:18:51.179Z,4.07
2023-05-12T13:19:55.229Z,2.58
2023-05-12T13:20:58.516Z,2.80
2023-05-12T13:22:01.000Z,5.32
2023-05-12T13:23:04.661Z,3.95
2023-05-12T13:24:07.464Z,3.20
2023-05-12T13:25:11.622Z,3.78
2023-05-12T13:26:14.207Z,2.85
2023-05-12T13:27:16.586Z,3.05
2023-05-12T13:28:20.877Z,3.38
2023-05-12T13:29:23.783Z,3.90
2023-05-12T13:30:26.305Z,3.90
2023-05-12T13:31:28.927Z,3.17
2023-05-12T13:32:32.289Z,3.15
2023-05-12T13:33:34.931Z,3.40
2023-05-12T13:34:38.485Z,6.72
2023-05-12T13:35:42.038Z,7.25
2023-05-12T13:36:46.075Z,3.33
2023-05-12T13:37:50.234Z,2.97
2023-05-12T13:38:52.993Z,4.72
2023-05-12T13:39:55.526Z,2.95
2023-05-12T13:40:57.975Z,3.53
2023-05-12T13:42:00.614Z,2.45
2023-05-12T13:43:03.392Z,2.75
2023-05-12T13:44:06.212Z,2.78
2023-05-12T13:45:09.493Z,2.40
2023-05-12T13:46:12.198Z,2.10
2023-05-12T13:47:15.663Z,2.85
2023-05-12T13:48:18.362Z,3.20
2023-05-12T13:49:21.575Z,4.35
2023-05-12T13:50:24.007Z,2.20
2023-05-12T13:51:27.075Z,4.18
2023-05-12T13:52:29.678Z,3.17
2023-05-12T13:53:32.402Z,4.22
2023-05-12T13:54:49.454Z,3.28
2023-05-12T13:55:51.998Z,4.03
2023-05-12T13:56:55.778Z,1.90
2023-05-12T13:57:58.401Z,1.92
2023-05-12T13:59:01.023Z,2.63
2023-05-12T14:00:04.638Z,1.90
2023-05-12T14:01:08.787Z,2.45